• Join FlightAware (Why Join?)
  • Login
  • US Flag GB Flag 
13:58 EDT


 

Airport Tracker/Info


-or-


 

Live Flight TrackerFlight Track Log ✈ CTL18 ✈ 16-Jul-2013 ✈ KBKL - KPTK

Flight Track Log - Related Links

Times and Time Zones

All times are in EDT time to prevent confusion due to time zone crossing. See the CTL18 flight status page for this flight to view local times or setup timezone preferences in your user account.

Time Position Orientation Groundspeed Altitude Reporting Facility
EDT Latitude Longitude Course Direction KTS MPH feet Rate Location/Type
22:16 41.5311 -81.7147 300° West 127 146 1,700  Level Cleveland Center
22:17 41.5644 -81.7292 342° North 130 150 2,500 660 Climbing Cleveland Center
22:18 41.5911 -81.7658 314° West 148 170 3,100 540 Climbing Cleveland Center
22:19 41.6072 -81.8133 294° West 142 163 3,700 540 Climbing Cleveland Center
22:20 41.6233 -81.8636 293° West 142 163 4,200 540 Climbing Cleveland Center
22:21 41.6375 -81.9111 292° West 146 168 4,800 540 Climbing Cleveland Center
22:22 41.6556 -81.9644 294° West 145 167 5,400 480 Climbing Cleveland Center
22:23 41.6717 -82.0119 294° West 146 168 5,800 300 Climbing Cleveland Center
22:24 41.6900 -82.0597 297° West 150 173 6,100 120 Climbing Cleveland Center
22:25 41.7100 -82.1214 293° West 169 194 6,100  Level Cleveland Center
22:26 41.7300 -82.1775 296° West 166 191 6,100  Level Cleveland Center
22:27 41.7458 -82.2361 290° West 165 190 6,200  Climbing Cleveland Center
22:28 41.7617 -82.2953 290° West 166 191 6,200 -60 Level Cleveland Center
22:29 41.7756 -82.3344 295° West 166 191 6,100 -120 Descending Cleveland Center
22:31 41.7972 -82.4242 288° West 169 194 6,000  Descending Cleveland Center
22:32 41.8128 -82.4858 289° West 168 193 6,100  Climbing Cleveland Center
22:32 41.8264 -82.5392 289° West 167 192 6,000 -60 Descending Cleveland Center
22:33 41.8486 -82.5931 299° West 168 193 6,000  Level Cleveland Center
22:35 41.9022 -82.6281 334° Northwest 164 189 6,000  Level Cleveland Center
22:36 41.9308 -82.6569 323° Northwest 163 188 6,100 60 Climbing Cleveland Center
22:36 41.9594 -82.6803 329° Northwest 164 189 6,100 -60 Level Cleveland Center
22:37 42.0047 -82.7181 328° Northwest 167 192 6,000 -60 Descending Cleveland Center
22:38 42.0436 -82.7500 329° Northwest 169 194 6,000  Level Cleveland Center
22:39 42.0847 -82.7822 330° Northwest 168 193 6,000  Level Cleveland Center
22:40 42.1258 -82.8172 328° Northwest 168 193 6,100  Climbing Cleveland Center
22:41 42.1586 -82.8436 329° Northwest 169 194 6,000 -60 Descending Cleveland Center
22:42 42.2039 -82.8817 328° Northwest 168 193 6,000  Level Cleveland Center
22:43 42.2344 -82.9053 330° Northwest 169 194 6,100  Climbing Cleveland Center
22:44 42.2797 -82.9433 328° Northwest 171 197 6,100  Level Cleveland Center
22:45 42.3247 -82.9789 330° Northwest 171 197 6,100 -240 Level Cleveland Center
22:46 42.3658 -83.0142 328° Northwest 177 204 5,700 -660 Descending Cleveland Center
22:47 42.4025 -83.0492 325° Northwest 195 224 5,000 -720 Descending Cleveland Center
22:48 42.4456 -83.0875 327° Northwest 184 212 4,400 -600 Descending Cleveland Center
22:49 42.4903 -83.1342 322° Northwest 171 197 3,800 -600 Descending Cleveland Center
22:50 42.5247 -83.1836 313° West 173 199 3,200 -480 Descending Cleveland Center
22:51 42.5569 -83.2272 315° West 163 188 2,900 -360 Descending Cleveland Center
22:52 42.5872 -83.2736 312° West 162 186 2,500 -420 Descending Cleveland Center
22:53 42.6175 -83.3144 315° West 159 183 2,100 -300 Descending Cleveland Center
22:54 42.6456 -83.3581 311° West 144 166 1,900 -420 Descending Cleveland Center
22:55 42.6636 -83.3897 308° West 110 127 1,400 -600 Descending Cleveland Center
22:57 42.6500 -83.4167 304° West  Level FlightAware Approximate
23:04 42.6656 -83.4205 304° West  Level Estimated
23:05 42.6656 -83.4205 304° West  Level Estimated